sensor_id;sensor_type;location;lat;lon;timestamp;P1;durP1;ratioP1;P2;durP2;ratioP2
60372;SDS011;46216;52.220;5.134;2023-07-13T00:00:28;14.40;;;3.47;;
60372;SDS011;46216;52.220;5.134;2023-07-13T00:02:55;16.58;;;3.17;;
60372;SDS011;46216;52.220;5.134;2023-07-13T00:05:21;14.43;;;3.25;;
60372;SDS011;46216;52.220;5.134;2023-07-13T00:07:51;14.30;;;3.10;;
60372;SDS011;46216;52.220;5.134;2023-07-13T00:10:17;13.93;;;3.15;;
60372;SDS011;46216;52.220;5.134;2023-07-13T00:12:43;13.98;;;3.45;;
60372;SDS011;46216;52.220;5.134;2023-07-13T00:15:18;18.73;;;3.63;;
60372;SDS011;46216;52.220;5.134;2023-07-13T00:17:51;14.02;;;3.72;;
60372;SDS011;46216;52.220;5.134;2023-07-13T00:20:18;14.13;;;3.00;;
60372;SDS011;46216;52.220;5.134;2023-07-13T00:22:49;13.13;;;3.50;;
60372;SDS011;46216;52.220;5.134;2023-07-13T00:25:16;12.27;;;3.38;;
60372;SDS011;46216;52.220;5.134;2023-07-13T00:27:43;15.43;;;3.15;;
60372;SDS011;46216;52.220;5.134;2023-07-13T00:30:09;13.85;;;3.30;;
60372;SDS011;46216;52.220;5.134;2023-07-13T00:32:35;10.10;;;2.90;;
60372;SDS011;46216;52.220;5.134;2023-07-13T00:35:02;16.98;;;3.25;;
60372;SDS011;46216;52.220;5.134;2023-07-13T00:37:29;13.30;;;2.88;;
60372;SDS011;46216;52.220;5.134;2023-07-13T00:39:55;10.40;;;2.65;;
60372;SDS011;46216;52.220;5.134;2023-07-13T00:42:21;14.32;;;3.28;;
60372;SDS011;46216;52.220;5.134;2023-07-13T00:47:27;11.30;;;3.08;;
60372;SDS011;46216;52.220;5.134;2023-07-13T00:49:53;12.90;;;2.95;;
60372;SDS011;46216;52.220;5.134;2023-07-13T00:52:18;10.80;;;2.75;;
60372;SDS011;46216;52.220;5.134;2023-07-13T00:54:45;15.27;;;3.92;;
60372;SDS011;46216;52.220;5.134;2023-07-13T00:57:12;11.63;;;2.88;;
60372;SDS011;46216;52.220;5.134;2023-07-13T00:59:42;12.55;;;2.60;;
60372;SDS011;46216;52.220;5.134;2023-07-13T01:02:10;12.02;;;2.80;;
60372;SDS011;46216;52.220;5.134;2023-07-13T01:04:36;13.43;;;2.90;;
60372;SDS011;46216;52.220;5.134;2023-07-13T01:07:03;10.32;;;2.50;;
60372;SDS011;46216;52.220;5.134;2023-07-13T01:09:31;13.45;;;3.15;;
60372;SDS011;46216;52.220;5.134;2023-07-13T01:11:57;11.55;;;2.80;;
60372;SDS011;46216;52.220;5.134;2023-07-13T01:14:24;14.18;;;3.08;;
60372;SDS011;46216;52.220;5.134;2023-07-13T01:16:50;8.57;;;2.47;;
60372;SDS011;46216;52.220;5.134;2023-07-13T01:21:42;10.30;;;2.70;;
60372;SDS011;46216;52.220;5.134;2023-07-13T01:24:08;10.32;;;2.65;;
60372;SDS011;46216;52.220;5.134;2023-07-13T01:26:34;10.18;;;2.70;;
60372;SDS011;46216;52.220;5.134;2023-07-13T01:29:00;8.98;;;2.35;;
60372;SDS011;46216;52.220;5.134;2023-07-13T01:31:25;10.77;;;2.80;;
60372;SDS011;46216;52.220;5.134;2023-07-13T01:33:51;7.60;;;2.35;;
60372;SDS011;46216;52.220;5.134;2023-07-13T01:36:17;10.00;;;2.70;;
60372;SDS011;46216;52.220;5.134;2023-07-13T01:38:42;9.68;;;2.45;;
60372;SDS011;46216;52.220;5.134;2023-07-13T01:41:08;10.02;;;2.58;;
60372;SDS011;46216;52.220;5.134;2023-07-13T01:43:33;6.18;;;2.42;;
60372;SDS011;46216;52.220;5.134;2023-07-13T01:45:59;8.80;;;2.60;;
60372;SDS011;46216;52.220;5.134;2023-07-13T01:48:24;8.85;;;2.50;;
60372;SDS011;46216;52.220;5.134;2023-07-13T01:50:50;9.20;;;2.42;;
60372;SDS011;46216;52.220;5.134;2023-07-13T01:53:18;8.68;;;2.50;;
60372;SDS011;46216;52.220;5.134;2023-07-13T01:55:44;8.15;;;2.58;;
60372;SDS011;46216;52.220;5.134;2023-07-13T01:58:09;8.27;;;2.95;;
60372;SDS011;46216;52.220;5.134;2023-07-13T02:00:38;9.18;;;2.65;;
60372;SDS011;46216;52.220;5.134;2023-07-13T02:03:03;10.80;;;2.75;;
60372;SDS011;46216;52.220;5.134;2023-07-13T02:05:29;10.65;;;2.83;;
60372;SDS011;46216;52.220;5.134;2023-07-13T02:07:54;8.25;;;2.95;;
60372;SDS011;46216;52.220;5.134;2023-07-13T02:10:19;11.20;;;3.40;;
60372;SDS011;46216;52.220;5.134;2023-07-13T02:12:45;9.05;;;2.72;;
60372;SDS011;46216;52.220;5.134;2023-07-13T02:15:11;11.70;;;2.95;;
60372;SDS011;46216;52.220;5.134;2023-07-13T02:17:37;13.85;;;3.15;;
60372;SDS011;46216;52.220;5.134;2023-07-13T02:20:02;13.82;;;3.08;;
60372;SDS011;46216;52.220;5.134;2023-07-13T02:22:29;11.07;;;3.00;;
60372;SDS011;46216;52.220;5.134;2023-07-13T02:24:56;13.88;;;3.00;;
60372;SDS011;46216;52.220;5.134;2023-07-13T02:27:21;10.88;;;3.30;;
60372;SDS011;46216;52.220;5.134;2023-07-13T02:29:46;8.40;;;2.50;;
60372;SDS011;46216;52.220;5.134;2023-07-13T02:32:12;10.13;;;3.03;;
60372;SDS011;46216;52.220;5.134;2023-07-13T02:34:38;8.13;;;3.08;;
60372;SDS011;46216;52.220;5.134;2023-07-13T02:37:03;10.40;;;2.75;;
60372;SDS011;46216;52.220;5.134;2023-07-13T02:39:29;10.70;;;3.00;;
60372;SDS011;46216;52.220;5.134;2023-07-13T02:41:58;18.20;;;3.20;;
60372;SDS011;46216;52.220;5.134;2023-07-13T02:44:24;13.10;;;3.38;;
60372;SDS011;46216;52.220;5.134;2023-07-13T02:46:49;12.93;;;3.25;;
60372;SDS011;46216;52.220;5.134;2023-07-13T02:49:15;12.15;;;3.40;;
60372;SDS011;46216;52.220;5.134;2023-07-13T02:51:40;15.18;;;3.50;;
60372;SDS011;46216;52.220;5.134;2023-07-13T02:54:06;14.27;;;3.28;;
60372;SDS011;46216;52.220;5.134;2023-07-13T02:56:34;9.75;;;3.40;;
60372;SDS011;46216;52.220;5.134;2023-07-13T02:58:59;11.85;;;2.83;;
60372;SDS011;46216;52.220;5.134;2023-07-13T03:01:25;10.43;;;2.78;;
60372;SDS011;46216;52.220;5.134;2023-07-13T03:03:51;14.70;;;2.70;;
60372;SDS011;46216;52.220;5.134;2023-07-13T03:06:17;10.88;;;2.75;;
60372;SDS011;46216;52.220;5.134;2023-07-13T03:08:44;11.23;;;2.78;;
60372;SDS011;46216;52.220;5.134;2023-07-13T03:11:11;9.68;;;2.60;;
60372;SDS011;46216;52.220;5.134;2023-07-13T03:13:39;10.25;;;2.50;;
60372;SDS011;46216;52.220;5.134;2023-07-13T03:16:06;8.70;;;2.05;;
60372;SDS011;46216;52.220;5.134;2023-07-13T03:18:33;12.23;;;2.30;;
60372;SDS011;46216;52.220;5.134;2023-07-13T03:20:58;8.05;;;2.10;;
60372;SDS011;46216;52.220;5.134;2023-07-13T03:23:24;6.90;;;2.08;;
60372;SDS011;46216;52.220;5.134;2023-07-13T03:28:47;6.38;;;2.25;;
60372;SDS011;46216;52.220;5.134;2023-07-13T03:31:17;8.73;;;2.13;;
60372;SDS011;46216;52.220;5.134;2023-07-13T03:33:45;9.40;;;2.10;;
60372;SDS011;46216;52.220;5.134;2023-07-13T03:36:15;7.97;;;2.17;;
60372;SDS011;46216;52.220;5.134;2023-07-13T03:38:47;8.85;;;2.92;;
60372;SDS011;46216;52.220;5.134;2023-07-13T03:41:14;9.30;;;2.10;;
60372;SDS011;46216;52.220;5.134;2023-07-13T03:43:40;9.75;;;2.47;;
60372;SDS011;46216;52.220;5.134;2023-07-13T03:46:06;8.18;;;2.78;;
60372;SDS011;46216;52.220;5.134;2023-07-13T03:48:32;7.75;;;2.22;;
60372;SDS011;46216;52.220;5.134;2023-07-13T03:50:57;10.57;;;2.75;;
60372;SDS011;46216;52.220;5.134;2023-07-13T03:53:23;9.25;;;2.50;;
60372;SDS011;46216;52.220;5.134;2023-07-13T03:55:48;8.18;;;2.70;;
60372;SDS011;46216;52.220;5.134;2023-07-13T03:58:27;8.82;;;2.70;;
60372;SDS011;46216;52.220;5.134;2023-07-13T04:00:56;13.45;;;3.03;;
60372;SDS011;46216;52.220;5.134;2023-07-13T04:03:22;9.88;;;2.75;;
60372;SDS011;46216;52.220;5.134;2023-07-13T04:05:48;10.35;;;2.78;;
60372;SDS011;46216;52.220;5.134;2023-07-13T04:08:14;10.27;;;3.00;;
60372;SDS011;46216;52.220;5.134;2023-07-13T04:10:39;7.20;;;2.78;;
60372;SDS011;46216;52.220;5.134;2023-07-13T04:13:05;9.13;;;2.67;;
60372;SDS011;46216;52.220;5.134;2023-07-13T04:15:31;13.43;;;2.92;;
60372;SDS011;46216;52.220;5.134;2023-07-13T04:17:58;10.73;;;2.97;;
60372;SDS011;46216;52.220;5.134;2023-07-13T04:20:24;9.18;;;2.72;;
60372;SDS011;46216;52.220;5.134;2023-07-13T04:22:50;13.25;;;3.08;;
60372;SDS011;46216;52.220;5.134;2023-07-13T04:25:16;12.32;;;3.25;;
60372;SDS011;46216;52.220;5.134;2023-07-13T04:27:42;11.45;;;2.70;;
60372;SDS011;46216;52.220;5.134;2023-07-13T04:30:07;13.73;;;2.72;;
60372;SDS011;46216;52.220;5.134;2023-07-13T04:32:33;10.55;;;2.95;;
60372;SDS011;46216;52.220;5.134;2023-07-13T04:34:59;9.88;;;2.78;;
60372;SDS011;46216;52.220;5.134;2023-07-13T04:37:25;9.52;;;2.88;;
60372;SDS011;46216;52.220;5.134;2023-07-13T04:39:52;13.25;;;3.60;;
60372;SDS011;46216;52.220;5.134;2023-07-13T04:42:18;14.73;;;3.30;;
60372;SDS011;46216;52.220;5.134;2023-07-13T04:44:47;14.68;;;3.50;;
60372;SDS011;46216;52.220;5.134;2023-07-13T04:47:14;12.10;;;3.58;;
60372;SDS011;46216;52.220;5.134;2023-07-13T04:49:39;17.75;;;3.97;;
60372;SDS011;46216;52.220;5.134;2023-07-13T04:52:06;9.52;;;3.53;;
60372;SDS011;46216;52.220;5.134;2023-07-13T04:54:33;13.98;;;4.03;;
60372;SDS011;46216;52.220;5.134;2023-07-13T04:57:01;10.73;;;3.92;;
60372;SDS011;46216;52.220;5.134;2023-07-13T04:59:27;12.85;;;3.92;;
60372;SDS011;46216;52.220;5.134;2023-07-13T05:01:53;18.65;;;4.30;;
60372;SDS011;46216;52.220;5.134;2023-07-13T05:04:19;14.27;;;4.70;;
60372;SDS011;46216;52.220;5.134;2023-07-13T05:06:44;15.00;;;4.55;;
60372;SDS011;46216;52.220;5.134;2023-07-13T05:09:10;15.80;;;4.22;;
60372;SDS011;46216;52.220;5.134;2023-07-13T05:11:41;13.43;;;4.82;;
60372;SDS011;46216;52.220;5.134;2023-07-13T05:14:08;16.38;;;4.53;;
60372;SDS011;46216;52.220;5.134;2023-07-13T05:16:35;17.70;;;5.05;;
60372;SDS011;46216;52.220;5.134;2023-07-13T05:19:01;12.30;;;4.35;;
60372;SDS011;46216;52.220;5.134;2023-07-13T05:21:30;16.65;;;4.45;;
60372;SDS011;46216;52.220;5.134;2023-07-13T05:24:02;13.63;;;4.65;;
60372;SDS011;46216;52.220;5.134;2023-07-13T05:26:28;16.67;;;5.22;;
60372;SDS011;46216;52.220;5.134;2023-07-13T05:28:57;17.02;;;4.80;;
60372;SDS011;46216;52.220;5.134;2023-07-13T05:31:22;17.58;;;5.00;;
60372;SDS011;46216;52.220;5.134;2023-07-13T05:33:48;12.88;;;4.45;;
60372;SDS011;46216;52.220;5.134;2023-07-13T05:36:14;15.48;;;5.70;;
60372;SDS011;46216;52.220;5.134;2023-07-13T05:38:39;22.13;;;5.10;;
60372;SDS011;46216;52.220;5.134;2023-07-13T05:41:05;16.50;;;4.90;;
60372;SDS011;46216;52.220;5.134;2023-07-13T05:43:31;14.43;;;4.80;;
60372;SDS011;46216;52.220;5.134;2023-07-13T05:45:57;16.85;;;5.35;;
60372;SDS011;46216;52.220;5.134;2023-07-13T05:48:22;14.98;;;4.95;;
60372;SDS011;46216;52.220;5.134;2023-07-13T05:50:48;18.65;;;5.38;;
60372;SDS011;46216;52.220;5.134;2023-07-13T05:53:14;15.32;;;5.00;;
60372;SDS011;46216;52.220;5.134;2023-07-13T05:55:41;14.50;;;4.80;;
60372;SDS011;46216;52.220;5.134;2023-07-13T05:58:08;14.18;;;4.97;;
60372;SDS011;46216;52.220;5.134;2023-07-13T06:00:33;16.10;;;4.70;;
60372;SDS011;46216;52.220;5.134;2023-07-13T06:02:59;14.77;;;4.55;;
60372;SDS011;46216;52.220;5.134;2023-07-13T06:05:24;16.48;;;4.63;;
60372;SDS011;46216;52.220;5.134;2023-07-13T06:07:50;16.25;;;4.57;;
60372;SDS011;46216;52.220;5.134;2023-07-13T06:10:15;13.38;;;4.53;;
60372;SDS011;46216;52.220;5.134;2023-07-13T06:12:41;11.02;;;4.28;;
60372;SDS011;46216;52.220;5.134;2023-07-13T06:15:11;15.93;;;4.75;;
60372;SDS011;46216;52.220;5.134;2023-07-13T06:17:40;15.80;;;5.38;;
60372;SDS011;46216;52.220;5.134;2023-07-13T06:20:08;14.80;;;5.35;;
60372;SDS011;46216;52.220;5.134;2023-07-13T06:22:33;16.77;;;5.00;;
60372;SDS011;46216;52.220;5.134;2023-07-13T06:24:59;14.52;;;5.20;;
60372;SDS011;46216;52.220;5.134;2023-07-13T06:27:24;13.50;;;4.72;;
60372;SDS011;46216;52.220;5.134;2023-07-13T06:29:50;13.55;;;4.82;;
60372;SDS011;46216;52.220;5.134;2023-07-13T06:32:15;16.58;;;4.88;;
60372;SDS011;46216;52.220;5.134;2023-07-13T06:34:42;19.10;;;5.10;;
60372;SDS011;46216;52.220;5.134;2023-07-13T06:37:08;13.93;;;5.10;;
60372;SDS011;46216;52.220;5.134;2023-07-13T06:39:35;15.05;;;5.03;;
60372;SDS011;46216;52.220;5.134;2023-07-13T06:42:00;16.25;;;5.20;;
60372;SDS011;46216;52.220;5.134;2023-07-13T06:44:25;16.10;;;5.22;;
60372;SDS011;46216;52.220;5.134;2023-07-13T06:46:51;15.77;;;4.85;;
60372;SDS011;46216;52.220;5.134;2023-07-13T06:49:19;12.88;;;4.60;;
60372;SDS011;46216;52.220;5.134;2023-07-13T06:51:45;15.75;;;5.05;;
60372;SDS011;46216;52.220;5.134;2023-07-13T06:54:10;14.18;;;5.55;;
60372;SDS011;46216;52.220;5.134;2023-07-13T06:56:36;16.95;;;5.25;;
60372;SDS011;46216;52.220;5.134;2023-07-13T06:59:04;17.38;;;5.03;;
60372;SDS011;46216;52.220;5.134;2023-07-13T07:01:30;8.75;;;3.30;;
60372;SDS011;46216;52.220;5.134;2023-07-13T07:03:55;14.30;;;3.60;;
60372;SDS011;46216;52.220;5.134;2023-07-13T07:06:21;6.40;;;2.97;;
60372;SDS011;46216;52.220;5.134;2023-07-13T07:08:51;11.07;;;2.88;;
60372;SDS011;46216;52.220;5.134;2023-07-13T07:11:18;13.10;;;5.38;;
60372;SDS011;46216;52.220;5.134;2023-07-13T07:13:47;10.98;;;4.22;;
60372;SDS011;46216;52.220;5.134;2023-07-13T07:16:16;7.72;;;3.00;;
60372;SDS011;46216;52.220;5.134;2023-07-13T07:18:42;6.10;;;2.63;;
60372;SDS011;46216;52.220;5.134;2023-07-13T07:21:07;3.67;;;2.38;;
60372;SDS011;46216;52.220;5.134;2023-07-13T07:23:33;6.00;;;2.38;;
60372;SDS011;46216;52.220;5.134;2023-07-13T07:25:58;4.82;;;2.55;;
60372;SDS011;46216;52.220;5.134;2023-07-13T07:28:24;7.55;;;2.47;;
60372;SDS011;46216;52.220;5.134;2023-07-13T07:30:52;6.13;;;2.97;;
60372;SDS011;46216;52.220;5.134;2023-07-13T07:33:18;5.13;;;2.88;;
60372;SDS011;46216;52.220;5.134;2023-07-13T07:35:44;7.40;;;3.10;;
60372;SDS011;46216;52.220;5.134;2023-07-13T07:38:09;7.43;;;3.10;;
60372;SDS011;46216;52.220;5.134;2023-07-13T07:40:38;6.80;;;3.35;;
60372;SDS011;46216;52.220;5.134;2023-07-13T07:43:06;9.55;;;3.78;;
60372;SDS011;46216;52.220;5.134;2023-07-13T07:45:32;9.52;;;4.13;;
60372;SDS011;46216;52.220;5.134;2023-07-13T07:47:57;9.43;;;4.55;;
60372;SDS011;46216;52.220;5.134;2023-07-13T07:50:27;9.18;;;4.70;;
60372;SDS011;46216;52.220;5.134;2023-07-13T07:52:52;10.80;;;5.03;;
60372;SDS011;46216;52.220;5.134;2023-07-13T07:55:18;12.15;;;5.07;;
60372;SDS011;46216;52.220;5.134;2023-07-13T07:57:44;10.45;;;5.57;;
60372;SDS011;46216;52.220;5.134;2023-07-13T08:00:12;13.32;;;5.90;;
60372;SDS011;46216;52.220;5.134;2023-07-13T08:02:39;8.80;;;5.88;;
60372;SDS011;46216;52.220;5.134;2023-07-13T08:05:06;16.13;;;5.70;;
60372;SDS011;46216;52.220;5.134;2023-07-13T08:07:38;8.98;;;5.97;;
60372;SDS011;46216;52.220;5.134;2023-07-13T08:10:05;10.30;;;5.40;;
60372;SDS011;46216;52.220;5.134;2023-07-13T08:12:34;13.80;;;6.30;;
60372;SDS011;46216;52.220;5.134;2023-07-13T08:15:04;12.68;;;5.13;;
60372;SDS011;46216;52.220;5.134;2023-07-13T08:17:31;13.82;;;5.60;;
60372;SDS011;46216;52.220;5.134;2023-07-13T08:19:57;15.20;;;6.53;;
60372;SDS011;46216;52.220;5.134;2023-07-13T08:22:22;10.88;;;6.28;;
60372;SDS011;46216;52.220;5.134;2023-07-13T08:24:48;15.52;;;6.30;;
60372;SDS011;46216;52.220;5.134;2023-07-13T08:27:20;14.85;;;6.65;;
60372;SDS011;46216;52.220;5.134;2023-07-13T08:29:47;11.27;;;6.82;;
60372;SDS011;46216;52.220;5.134;2023-07-13T08:32:13;15.48;;;6.88;;
60372;SDS011;46216;52.220;5.134;2023-07-13T08:34:39;8.65;;;4.15;;
60372;SDS011;46216;52.220;5.134;2023-07-13T08:37:05;9.05;;;3.78;;
60372;SDS011;46216;52.220;5.134;2023-07-13T08:39:31;8.13;;;3.60;;
60372;SDS011;46216;52.220;5.134;2023-07-13T08:41:59;7.40;;;3.80;;
60372;SDS011;46216;52.220;5.134;2023-07-13T08:47:16;9.77;;;4.35;;
60372;SDS011;46216;52.220;5.134;2023-07-13T08:49:46;10.30;;;4.30;;
60372;SDS011;46216;52.220;5.134;2023-07-13T08:52:33;8.38;;;4.28;;
60372;SDS011;46216;52.220;5.134;2023-07-13T08:55:04;6.10;;;3.85;;
60372;SDS011;46216;52.220;5.134;2023-07-13T08:57:36;7.93;;;4.30;;
60372;SDS011;46216;52.220;5.134;2023-07-13T09:00:05;5.53;;;4.20;;
60372;SDS011;46216;52.220;5.134;2023-07-13T09:02:38;4.50;;;3.47;;
60372;SDS011;46216;52.220;5.134;2023-07-13T09:05:12;5.63;;;3.58;;
60372;SDS011;46216;52.220;5.134;2023-07-13T09:12:57;5.82;;;3.03;;
60372;SDS011;46216;52.220;5.134;2023-07-13T09:15:32;6.32;;;3.50;;
60372;SDS011;46216;52.220;5.134;2023-07-13T09:18:09;7.47;;;3.67;;
60372;SDS011;46216;52.220;5.134;2023-07-13T09:20:49;6.35;;;3.80;;
60372;SDS011;46216;52.220;5.134;2023-07-13T09:23:20;6.70;;;3.78;;
60372;SDS011;46216;52.220;5.134;2023-07-13T09:25:48;8.75;;;3.83;;
60372;SDS011;46216;52.220;5.134;2023-07-13T09:28:22;8.30;;;4.05;;
60372;SDS011;46216;52.220;5.134;2023-07-13T09:31:03;8.63;;;4.07;;
60372;SDS011;46216;52.220;5.134;2023-07-13T09:33:31;7.82;;;4.63;;
60372;SDS011;46216;52.220;5.134;2023-07-13T09:35:58;6.60;;;4.13;;
60372;SDS011;46216;52.220;5.134;2023-07-13T09:38:24;9.35;;;4.25;;
60372;SDS011;46216;52.220;5.134;2023-07-13T09:40:59;7.40;;;4.35;;
60372;SDS011;46216;52.220;5.134;2023-07-13T09:43:34;6.60;;;3.88;;
60372;SDS011;46216;52.220;5.134;2023-07-13T09:45:59;9.45;;;4.60;;
60372;SDS011;46216;52.220;5.134;2023-07-13T09:48:25;9.52;;;4.60;;
60372;SDS011;46216;52.220;5.134;2023-07-13T09:50:55;10.60;;;4.50;;
60372;SDS011;46216;52.220;5.134;2023-07-13T09:53:22;8.18;;;4.68;;
60372;SDS011;46216;52.220;5.134;2023-07-13T09:55:48;7.43;;;4.40;;
60372;SDS011;46216;52.220;5.134;2023-07-13T10:00:56;10.82;;;3.60;;
60372;SDS011;46216;52.220;5.134;2023-07-13T10:03:25;7.38;;;3.92;;
60372;SDS011;46216;52.220;5.134;2023-07-13T10:05:53;5.60;;;3.42;;
60372;SDS011;46216;52.220;5.134;2023-07-13T10:08:26;8.57;;;3.33;;
60372;SDS011;46216;52.220;5.134;2023-07-13T10:11:02;5.10;;;2.90;;
60372;SDS011;46216;52.220;5.134;2023-07-13T10:13:35;6.50;;;3.20;;
60372;SDS011;46216;52.220;5.134;2023-07-13T10:16:02;7.53;;;3.00;;
60372;SDS011;46216;52.220;5.134;2023-07-13T10:18:31;9.63;;;3.25;;
60372;SDS011;46216;52.220;5.134;2023-07-13T10:21:09;7.35;;;2.90;;
60372;SDS011;46216;52.220;5.134;2023-07-13T10:23:37;6.60;;;3.20;;
60372;SDS011;46216;52.220;5.134;2023-07-13T10:26:03;9.85;;;3.15;;
60372;SDS011;46216;52.220;5.134;2023-07-13T10:28:35;5.35;;;2.70;;
60372;SDS011;46216;52.220;5.134;2023-07-13T10:31:06;6.35;;;3.00;;
60372;SDS011;46216;52.220;5.134;2023-07-13T10:33:37;6.63;;;3.13;;
60372;SDS011;46216;52.220;5.134;2023-07-13T10:36:28;9.35;;;2.67;;
60372;SDS011;46216;52.220;5.134;2023-07-13T10:39:04;6.07;;;2.83;;
60372;SDS011;46216;52.220;5.134;2023-07-13T10:41:35;6.95;;;2.85;;
60372;SDS011;46216;52.220;5.134;2023-07-13T10:44:04;4.32;;;2.80;;
60372;SDS011;46216;52.220;5.134;2023-07-13T10:46:42;5.55;;;2.83;;
60372;SDS011;46216;52.220;5.134;2023-07-13T10:49:09;5.28;;;3.13;;
60372;SDS011;46216;52.220;5.134;2023-07-13T10:51:37;7.75;;;2.92;;
60372;SDS011;46216;52.220;5.134;2023-07-13T10:54:19;6.93;;;3.05;;
60372;SDS011;46216;52.220;5.134;2023-07-13T10:56:48;9.48;;;3.60;;
60372;SDS011;46216;52.220;5.134;2023-07-13T10:59:23;7.30;;;3.30;;
60372;SDS011;46216;52.220;5.134;2023-07-13T11:01:58;5.78;;;3.03;;
60372;SDS011;46216;52.220;5.134;2023-07-13T11:04:45;6.18;;;2.60;;
60372;SDS011;46216;52.220;5.134;2023-07-13T11:09:51;5.75;;;2.65;;
60372;SDS011;46216;52.220;5.134;2023-07-13T11:19:53;3.50;;;2.50;;
60372;SDS011;46216;52.220;5.134;2023-07-13T11:22:23;6.45;;;2.30;;
60372;SDS011;46216;52.220;5.134;2023-07-13T11:27:41;6.38;;;2.58;;
60372;SDS011;46216;52.220;5.134;2023-07-13T11:38:41;6.25;;;2.67;;
60372;SDS011;46216;52.220;5.134;2023-07-13T11:41:19;7.95;;;2.40;;
60372;SDS011;46216;52.220;5.134;2023-07-13T11:43:50;5.28;;;2.13;;
60372;SDS011;46216;52.220;5.134;2023-07-13T11:46:23;5.25;;;2.20;;
60372;SDS011;46216;52.220;5.134;2023-07-13T11:48:53;4.55;;;1.90;;
60372;SDS011;46216;52.220;5.134;2023-07-13T11:53:56;6.90;;;2.53;;
60372;SDS011;46216;52.220;5.134;2023-07-13T11:56:23;6.00;;;2.50;;
60372;SDS011;46216;52.220;5.134;2023-07-13T11:58:51;5.55;;;2.30;;
60372;SDS011;46216;52.220;5.134;2023-07-13T12:01:26;5.72;;;2.30;;
60372;SDS011;46216;52.220;5.134;2023-07-13T12:03:57;6.47;;;2.50;;
60372;SDS011;46216;52.220;5.134;2023-07-13T12:06:34;4.20;;;1.95;;
60372;SDS011;46216;52.220;5.134;2023-07-13T12:09:12;4.15;;;2.25;;
60372;SDS011;46216;52.220;5.134;2023-07-13T12:11:41;4.75;;;2.35;;
60372;SDS011;46216;52.220;5.134;2023-07-13T12:14:17;6.35;;;2.42;;
60372;SDS011;46216;52.220;5.134;2023-07-13T12:16:45;5.28;;;1.90;;
60372;SDS011;46216;52.220;5.134;2023-07-13T12:22:11;5.10;;;2.35;;
60372;SDS011;46216;52.220;5.134;2023-07-13T12:24:38;4.78;;;2.00;;
60372;SDS011;46216;52.220;5.134;2023-07-13T12:27:05;8.40;;;2.45;;
60372;SDS011;46216;52.220;5.134;2023-07-13T12:29:32;5.70;;;2.80;;
60372;SDS011;46216;52.220;5.134;2023-07-13T12:31:58;4.93;;;2.13;;
60372;SDS011;46216;52.220;5.134;2023-07-13T12:34:25;4.07;;;2.00;;
60372;SDS011;46216;52.220;5.134;2023-07-13T12:36:56;5.20;;;2.40;;
60372;SDS011;46216;52.220;5.134;2023-07-13T12:39:35;4.07;;;1.95;;
60372;SDS011;46216;52.220;5.134;2023-07-13T12:44:43;4.97;;;2.17;;
60372;SDS011;46216;52.220;5.134;2023-07-13T12:47:09;4.68;;;2.35;;
60372;SDS011;46216;52.220;5.134;2023-07-13T12:49:43;4.43;;;2.28;;
60372;SDS011;46216;52.220;5.134;2023-07-13T12:52:21;4.88;;;2.30;;
60372;SDS011;46216;52.220;5.134;2023-07-13T12:57:44;7.38;;;2.65;;
60372;SDS011;46216;52.220;5.134;2023-07-13T13:00:25;5.95;;;2.63;;
60372;SDS011;46216;52.220;5.134;2023-07-13T13:02:57;4.53;;;2.53;;
60372;SDS011;46216;52.220;5.134;2023-07-13T13:05:30;5.53;;;2.78;;
60372;SDS011;46216;52.220;5.134;2023-07-13T13:08:00;5.55;;;2.70;;
60372;SDS011;46216;52.220;5.134;2023-07-13T13:10:25;7.20;;;2.30;;
60372;SDS011;46216;52.220;5.134;2023-07-13T13:12:51;6.30;;;2.72;;
60372;SDS011;46216;52.220;5.134;2023-07-13T13:15:17;4.75;;;2.70;;
60372;SDS011;46216;52.220;5.134;2023-07-13T13:17:43;6.82;;;2.58;;
60372;SDS011;46216;52.220;5.134;2023-07-13T13:20:16;5.18;;;3.33;;
60372;SDS011;46216;52.220;5.134;2023-07-13T13:22:44;3.33;;;2.40;;
60372;SDS011;46216;52.220;5.134;2023-07-13T13:25:11;8.82;;;2.55;;
60372;SDS011;46216;52.220;5.134;2023-07-13T13:27:37;4.40;;;2.55;;
60372;SDS011;46216;52.220;5.134;2023-07-13T13:30:10;4.75;;;2.67;;
60372;SDS011;46216;52.220;5.134;2023-07-13T13:32:38;5.88;;;2.63;;
60372;SDS011;46216;52.220;5.134;2023-07-13T13:35:13;4.45;;;2.55;;
60372;SDS011;46216;52.220;5.134;2023-07-13T13:37:43;4.35;;;2.35;;
60372;SDS011;46216;52.220;5.134;2023-07-13T13:40:14;4.45;;;2.33;;
60372;SDS011;46216;52.220;5.134;2023-07-13T13:42:41;7.20;;;2.70;;
60372;SDS011;46216;52.220;5.134;2023-07-13T13:45:08;4.20;;;2.40;;
60372;SDS011;46216;52.220;5.134;2023-07-13T13:47:34;5.60;;;2.50;;
60372;SDS011;46216;52.220;5.134;2023-07-13T13:50:01;4.35;;;2.30;;
60372;SDS011;46216;52.220;5.134;2023-07-13T13:52:36;3.05;;;2.20;;
60372;SDS011;46216;52.220;5.134;2023-07-13T13:55:01;4.63;;;2.15;;
60372;SDS011;46216;52.220;5.134;2023-07-13T13:57:30;4.75;;;2.67;;
60372;SDS011;46216;52.220;5.134;2023-07-13T13:59:56;4.30;;;2.30;;
60372;SDS011;46216;52.220;5.134;2023-07-13T14:02:23;3.20;;;1.98;;
60372;SDS011;46216;52.220;5.134;2023-07-13T14:04:55;4.13;;;2.20;;
60372;SDS011;46216;52.220;5.134;2023-07-13T14:07:24;4.18;;;2.08;;
60372;SDS011;46216;52.220;5.134;2023-07-13T14:09:51;4.55;;;2.10;;
60372;SDS011;46216;52.220;5.134;2023-07-13T14:12:18;4.22;;;1.95;;
60372;SDS011;46216;52.220;5.134;2023-07-13T14:14:43;5.63;;;2.10;;
60372;SDS011;46216;52.220;5.134;2023-07-13T14:17:19;3.50;;;2.13;;
60372;SDS011;46216;52.220;5.134;2023-07-13T14:19:50;5.15;;;2.10;;
60372;SDS011;46216;52.220;5.134;2023-07-13T14:22:17;4.32;;;2.15;;
60372;SDS011;46216;52.220;5.134;2023-07-13T14:24:43;4.32;;;2.10;;
60372;SDS011;46216;52.220;5.134;2023-07-13T14:27:10;4.70;;;2.00;;
60372;SDS011;46216;52.220;5.134;2023-07-13T14:29:37;3.88;;;1.90;;
60372;SDS011;46216;52.220;5.134;2023-07-13T14:32:03;3.45;;;1.80;;
60372;SDS011;46216;52.220;5.134;2023-07-13T14:34:31;2.13;;;1.77;;
60372;SDS011;46216;52.220;5.134;2023-07-13T14:36:56;3.78;;;2.15;;
60372;SDS011;46216;52.220;5.134;2023-07-13T14:39:23;2.42;;;1.67;;
60372;SDS011;46216;52.220;5.134;2023-07-13T14:41:50;3.40;;;1.88;;
60372;SDS011;46216;52.220;5.134;2023-07-13T14:44:20;3.75;;;2.00;;
60372;SDS011;46216;52.220;5.134;2023-07-13T14:46:48;5.40;;;2.15;;
60372;SDS011;46216;52.220;5.134;2023-07-13T14:49:29;4.10;;;1.90;;
60372;SDS011;46216;52.220;5.134;2023-07-13T14:51:57;4.53;;;1.98;;
60372;SDS011;46216;52.220;5.134;2023-07-13T14:54:24;4.13;;;2.15;;
60372;SDS011;46216;52.220;5.134;2023-07-13T14:56:50;5.57;;;2.03;;
60372;SDS011;46216;52.220;5.134;2023-07-13T14:59:16;2.60;;;1.88;;
60372;SDS011;46216;52.220;5.134;2023-07-13T15:01:44;3.38;;;1.80;;
60372;SDS011;46216;52.220;5.134;2023-07-13T15:04:11;4.45;;;1.90;;
60372;SDS011;46216;52.220;5.134;2023-07-13T15:06:57;3.75;;;1.88;;
60372;SDS011;46216;52.220;5.134;2023-07-13T15:09:27;3.33;;;1.67;;
60372;SDS011;46216;52.220;5.134;2023-07-13T15:11:57;2.72;;;1.50;;
60372;SDS011;46216;52.220;5.134;2023-07-13T15:14:26;4.22;;;1.77;;
60372;SDS011;46216;52.220;5.134;2023-07-13T15:16:53;2.70;;;1.52;;
60372;SDS011;46216;52.220;5.134;2023-07-13T15:19:23;4.43;;;1.90;;
60372;SDS011;46216;52.220;5.134;2023-07-13T15:21:50;4.25;;;1.75;;
60372;SDS011;46216;52.220;5.134;2023-07-13T15:26:55;2.38;;;1.80;;
60372;SDS011;46216;52.220;5.134;2023-07-13T15:29:21;2.47;;;1.65;;
60372;SDS011;46216;52.220;5.134;2023-07-13T15:31:46;2.80;;;1.77;;
60372;SDS011;46216;52.220;5.134;2023-07-13T15:34:13;3.63;;;2.05;;
60372;SDS011;46216;52.220;5.134;2023-07-13T15:36:46;4.45;;;1.85;;
60372;SDS011;46216;52.220;5.134;2023-07-13T15:39:15;3.95;;;2.20;;
60372;SDS011;46216;52.220;5.134;2023-07-13T15:41:42;3.30;;;1.95;;